sensor_id;sensor_type;location;lat;lon;timestamp;P1;durP1;ratioP1;P2;durP2;ratioP2
40339;SDS011;26044;50.864;20.658;2023-01-16T00:07:11;35.80;;;15.00;;
40339;SDS011;26044;50.864;20.658;2023-01-16T00:10:37;35.22;;;14.43;;
40339;SDS011;26044;50.864;20.658;2023-01-16T00:14:06;29.65;;;13.23;;
40339;SDS011;26044;50.864;20.658;2023-01-16T00:20:54;30.90;;;13.20;;
40339;SDS011;26044;50.864;20.658;2023-01-16T00:24:11;29.05;;;11.80;;
40339;SDS011;26044;50.864;20.658;2023-01-16T00:26:58;30.45;;;13.20;;
40339;SDS011;26044;50.864;20.658;2023-01-16T00:29:59;26.05;;;10.77;;
40339;SDS011;26044;50.864;20.658;2023-01-16T00:33:03;25.33;;;11.38;;
40339;SDS011;26044;50.864;20.658;2023-01-16T00:36:11;29.48;;;11.50;;
40339;SDS011;26044;50.864;20.658;2023-01-16T00:39:14;29.10;;;11.15;;
40339;SDS011;26044;50.864;20.658;2023-01-16T00:42:52;27.42;;;11.65;;
40339;SDS011;26044;50.864;20.658;2023-01-16T00:45:52;25.65;;;10.27;;
40339;SDS011;26044;50.864;20.658;2023-01-16T00:48:44;25.73;;;11.65;;
40339;SDS011;26044;50.864;20.658;2023-01-16T00:51:37;27.65;;;11.88;;
40339;SDS011;26044;50.864;20.658;2023-01-16T00:54:38;27.45;;;12.45;;
40339;SDS011;26044;50.864;20.658;2023-01-16T00:57:44;29.60;;;12.52;;
40339;SDS011;26044;50.864;20.658;2023-01-16T01:00:54;30.45;;;11.55;;
40339;SDS011;26044;50.864;20.658;2023-01-16T01:03:52;29.27;;;11.98;;
40339;SDS011;26044;50.864;20.658;2023-01-16T01:06:34;27.90;;;11.65;;
40339;SDS011;26044;50.864;20.658;2023-01-16T01:09:28;25.95;;;11.38;;
40339;SDS011;26044;50.864;20.658;2023-01-16T01:12:20;28.58;;;12.15;;
40339;SDS011;26044;50.864;20.658;2023-01-16T01:15:13;28.55;;;12.20;;
40339;SDS011;26044;50.864;20.658;2023-01-16T01:18:00;28.40;;;12.63;;
40339;SDS011;26044;50.864;20.658;2023-01-16T01:20:42;27.42;;;12.25;;
40339;SDS011;26044;50.864;20.658;2023-01-16T01:23:35;29.80;;;13.43;;
40339;SDS011;26044;50.864;20.658;2023-01-16T01:26:55;27.40;;;12.25;;
40339;SDS011;26044;50.864;20.658;2023-01-16T01:29:54;30.65;;;14.00;;
40339;SDS011;26044;50.864;20.658;2023-01-16T01:32:46;26.30;;;12.00;;
40339;SDS011;26044;50.864;20.658;2023-01-16T01:35:27;27.60;;;12.57;;
40339;SDS011;26044;50.864;20.658;2023-01-16T01:38:11;28.02;;;12.05;;
40339;SDS011;26044;50.864;20.658;2023-01-16T01:41:04;27.23;;;12.05;;
40339;SDS011;26044;50.864;20.658;2023-01-16T01:50:04;28.45;;;12.60;;
40339;SDS011;26044;50.864;20.658;2023-01-16T01:53:25;26.50;;;11.75;;
40339;SDS011;26044;50.864;20.658;2023-01-16T01:56:26;28.25;;;11.95;;
40339;SDS011;26044;50.864;20.658;2023-01-16T01:59:38;26.80;;;12.95;;
40339;SDS011;26044;50.864;20.658;2023-01-16T02:02:42;27.17;;;12.65;;
40339;SDS011;26044;50.864;20.658;2023-01-16T02:05:48;25.40;;;11.90;;
40339;SDS011;26044;50.864;20.658;2023-01-16T02:08:53;25.40;;;11.25;;
40339;SDS011;26044;50.864;20.658;2023-01-16T02:11:55;27.17;;;11.75;;
40339;SDS011;26044;50.864;20.658;2023-01-16T02:18:02;26.10;;;12.30;;
40339;SDS011;26044;50.864;20.658;2023-01-16T02:31:03;28.75;;;12.73;;
40339;SDS011;26044;50.864;20.658;2023-01-16T02:47:15;28.95;;;11.88;;
40339;SDS011;26044;50.864;20.658;2023-01-16T02:50:19;27.10;;;12.38;;
40339;SDS011;26044;50.864;20.658;2023-01-16T02:53:54;27.95;;;11.80;;
40339;SDS011;26044;50.864;20.658;2023-01-16T02:57:01;26.45;;;11.77;;
40339;SDS011;26044;50.864;20.658;2023-01-16T02:59:58;29.73;;;12.70;;
40339;SDS011;26044;50.864;20.658;2023-01-16T03:02:54;27.00;;;12.90;;
40339;SDS011;26044;50.864;20.658;2023-01-16T03:05:50;27.15;;;12.27;;
40339;SDS011;26044;50.864;20.658;2023-01-16T03:08:48;28.50;;;13.35;;
40339;SDS011;26044;50.864;20.658;2023-01-16T03:15:56;31.85;;;17.13;;
40339;SDS011;26044;50.864;20.658;2023-01-16T03:18:57;35.13;;;17.58;;
40339;SDS011;26044;50.864;20.658;2023-01-16T03:28:26;33.70;;;16.73;;
40339;SDS011;26044;50.864;20.658;2023-01-16T03:31:16;39.22;;;18.38;;
40339;SDS011;26044;50.864;20.658;2023-01-16T03:34:18;34.05;;;18.58;;
40339;SDS011;26044;50.864;20.658;2023-01-16T03:39:43;38.55;;;20.08;;
40339;SDS011;26044;50.864;20.658;2023-01-16T03:53:10;39.03;;;19.30;;
40339;SDS011;26044;50.864;20.658;2023-01-16T03:57:24;39.25;;;20.38;;
40339;SDS011;26044;50.864;20.658;2023-01-16T04:00:05;38.20;;;20.15;;
40339;SDS011;26044;50.864;20.658;2023-01-16T04:03:25;36.65;;;19.00;;
40339;SDS011;26044;50.864;20.658;2023-01-16T04:06:30;61.88;;;22.85;;
40339;SDS011;26044;50.864;20.658;2023-01-16T04:09:51;87.68;;;22.80;;
40339;SDS011;26044;50.864;20.658;2023-01-16T04:12:43;55.22;;;21.70;;
40339;SDS011;26044;50.864;20.658;2023-01-16T04:16:08;66.30;;;21.55;;
40339;SDS011;26044;50.864;20.658;2023-01-16T04:18:58;54.13;;;19.90;;
40339;SDS011;26044;50.864;20.658;2023-01-16T04:22:04;63.58;;;23.30;;
40339;SDS011;26044;50.864;20.658;2023-01-16T04:24:40;110.35;;;20.48;;
40339;SDS011;26044;50.864;20.658;2023-01-16T04:27:21;106.32;;;17.67;;
40339;SDS011;26044;50.864;20.658;2023-01-16T04:30:23;104.57;;;18.98;;
40339;SDS011;26044;50.864;20.658;2023-01-16T04:32:59;89.95;;;17.95;;
40339;SDS011;26044;50.864;20.658;2023-01-16T04:36:29;76.65;;;19.40;;
40339;SDS011;26044;50.864;20.658;2023-01-16T04:39:39;62.92;;;19.70;;
40339;SDS011;26044;50.864;20.658;2023-01-16T04:42:45;75.88;;;23.52;;
40339;SDS011;26044;50.864;20.658;2023-01-16T04:46:13;59.65;;;22.05;;
40339;SDS011;26044;50.864;20.658;2023-01-16T04:49:27;71.63;;;24.88;;
40339;SDS011;26044;50.864;20.658;2023-01-16T04:52:17;50.60;;;17.17;;
40339;SDS011;26044;50.864;20.658;2023-01-16T04:58:44;38.28;;;13.38;;
40339;SDS011;26044;50.864;20.658;2023-01-16T05:01:48;39.72;;;15.23;;
40339;SDS011;26044;50.864;20.658;2023-01-16T05:04:51;64.03;;;14.32;;
40339;SDS011;26044;50.864;20.658;2023-01-16T05:07:46;50.20;;;16.00;;
40339;SDS011;26044;50.864;20.658;2023-01-16T05:11:26;43.47;;;15.18;;
40339;SDS011;26044;50.864;20.658;2023-01-16T05:14:46;44.95;;;14.57;;
40339;SDS011;26044;50.864;20.658;2023-01-16T05:17:49;50.80;;;14.90;;
40339;SDS011;26044;50.864;20.658;2023-01-16T05:20:36;57.10;;;14.63;;
40339;SDS011;26044;50.864;20.658;2023-01-16T05:24:04;48.17;;;14.07;;
40339;SDS011;26044;50.864;20.658;2023-01-16T05:27:08;48.30;;;14.00;;
40339;SDS011;26044;50.864;20.658;2023-01-16T05:30:20;60.60;;;16.48;;
40339;SDS011;26044;50.864;20.658;2023-01-16T05:33:47;73.20;;;17.48;;
40339;SDS011;26044;50.864;20.658;2023-01-16T05:37:08;51.05;;;17.02;;
40339;SDS011;26044;50.864;20.658;2023-01-16T05:40:06;59.22;;;18.67;;
40339;SDS011;26044;50.864;20.658;2023-01-16T05:43:14;58.75;;;16.25;;
40339;SDS011;26044;50.864;20.658;2023-01-16T05:49:04;67.72;;;17.38;;
40339;SDS011;26044;50.864;20.658;2023-01-16T05:55:55;56.08;;;19.55;;
40339;SDS011;26044;50.864;20.658;2023-01-16T05:59:10;63.08;;;19.77;;
40339;SDS011;26044;50.864;20.658;2023-01-16T06:02:18;111.60;;;26.55;;
40339;SDS011;26044;50.864;20.658;2023-01-16T06:12:54;107.07;;;38.55;;
40339;SDS011;26044;50.864;20.658;2023-01-16T06:16:29;98.18;;;37.05;;
40339;SDS011;26044;50.864;20.658;2023-01-16T06:19:27;137.90;;;52.40;;
40339;SDS011;26044;50.864;20.658;2023-01-16T06:22:02;123.40;;;44.53;;
40339;SDS011;26044;50.864;20.658;2023-01-16T06:24:31;110.30;;;43.25;;
40339;SDS011;26044;50.864;20.658;2023-01-16T06:26:57;136.65;;;47.08;;
40339;SDS011;26044;50.864;20.658;2023-01-16T06:29:24;119.53;;;46.97;;
40339;SDS011;26044;50.864;20.658;2023-01-16T06:31:51;98.70;;;38.17;;
40339;SDS011;26044;50.864;20.658;2023-01-16T06:34:21;88.95;;;37.75;;
40339;SDS011;26044;50.864;20.658;2023-01-16T06:36:47;97.68;;;37.50;;
40339;SDS011;26044;50.864;20.658;2023-01-16T06:39:17;105.78;;;39.38;;
40339;SDS011;26044;50.864;20.658;2023-01-16T06:41:43;115.50;;;44.58;;
40339;SDS011;26044;50.864;20.658;2023-01-16T06:44:10;135.32;;;51.78;;
40339;SDS011;26044;50.864;20.658;2023-01-16T06:46:43;121.82;;;48.03;;
40339;SDS011;26044;50.864;20.658;2023-01-16T06:49:12;124.70;;;50.50;;
40339;SDS011;26044;50.864;20.658;2023-01-16T06:51:42;141.77;;;57.42;;
40339;SDS011;26044;50.864;20.658;2023-01-16T06:54:11;90.47;;;35.08;;
40339;SDS011;26044;50.864;20.658;2023-01-16T06:56:41;112.22;;;46.17;;
40339;SDS011;26044;50.864;20.658;2023-01-16T06:59:11;116.05;;;48.38;;
40339;SDS011;26044;50.864;20.658;2023-01-16T07:01:49;112.03;;;47.53;;
40339;SDS011;26044;50.864;20.658;2023-01-16T07:04:17;100.37;;;39.93;;
40339;SDS011;26044;50.864;20.658;2023-01-16T07:06:53;108.47;;;35.85;;
40339;SDS011;26044;50.864;20.658;2023-01-16T07:09:24;80.97;;;32.03;;
40339;SDS011;26044;50.864;20.658;2023-01-16T07:12:13;75.10;;;29.98;;
40339;SDS011;26044;50.864;20.658;2023-01-16T07:14:40;73.30;;;29.77;;
40339;SDS011;26044;50.864;20.658;2023-01-16T07:17:45;91.80;;;34.58;;
40339;SDS011;26044;50.864;20.658;2023-01-16T07:20:30;130.93;;;52.38;;
40339;SDS011;26044;50.864;20.658;2023-01-16T07:23:27;109.22;;;49.92;;
40339;SDS011;26044;50.864;20.658;2023-01-16T07:26:03;107.50;;;47.55;;
40339;SDS011;26044;50.864;20.658;2023-01-16T07:28:39;89.65;;;38.90;;
40339;SDS011;26044;50.864;20.658;2023-01-16T07:31:15;86.00;;;34.78;;
40339;SDS011;26044;50.864;20.658;2023-01-16T07:34:25;93.85;;;36.47;;
40339;SDS011;26044;50.864;20.658;2023-01-16T07:37:39;89.18;;;37.88;;
40339;SDS011;26044;50.864;20.658;2023-01-16T07:40:09;98.75;;;40.83;;
40339;SDS011;26044;50.864;20.658;2023-01-16T07:42:44;105.57;;;38.10;;
40339;SDS011;26044;50.864;20.658;2023-01-16T07:45:33;106.50;;;44.53;;
40339;SDS011;26044;50.864;20.658;2023-01-16T07:48:13;117.10;;;46.63;;
40339;SDS011;26044;50.864;20.658;2023-01-16T07:50:56;122.47;;;47.50;;
40339;SDS011;26044;50.864;20.658;2023-01-16T07:53:25;111.75;;;47.55;;
40339;SDS011;26044;50.864;20.658;2023-01-16T07:55:58;112.05;;;47.28;;
40339;SDS011;26044;50.864;20.658;2023-01-16T07:58:35;109.22;;;43.90;;
40339;SDS011;26044;50.864;20.658;2023-01-16T08:01:10;96.38;;;36.65;;
40339;SDS011;26044;50.864;20.658;2023-01-16T08:03:37;80.13;;;33.50;;
40339;SDS011;26044;50.864;20.658;2023-01-16T08:06:09;66.60;;;29.42;;
40339;SDS011;26044;50.864;20.658;2023-01-16T08:08:38;66.82;;;29.70;;
40339;SDS011;26044;50.864;20.658;2023-01-16T08:11:05;56.22;;;25.30;;
40339;SDS011;26044;50.864;20.658;2023-01-16T08:13:50;56.35;;;24.13;;
40339;SDS011;26044;50.864;20.658;2023-01-16T08:16:18;59.38;;;27.90;;
40339;SDS011;26044;50.864;20.658;2023-01-16T08:19:20;60.88;;;27.88;;
40339;SDS011;26044;50.864;20.658;2023-01-16T08:22:05;59.45;;;27.38;;
40339;SDS011;26044;50.864;20.658;2023-01-16T08:24:40;65.03;;;30.75;;
40339;SDS011;26044;50.864;20.658;2023-01-16T08:27:12;65.78;;;31.52;;
40339;SDS011;26044;50.864;20.658;2023-01-16T08:29:46;77.43;;;35.83;;
40339;SDS011;26044;50.864;20.658;2023-01-16T08:32:39;76.22;;;35.92;;
40339;SDS011;26044;50.864;20.658;2023-01-16T08:35:24;87.82;;;39.63;;
40339;SDS011;26044;50.864;20.658;2023-01-16T08:38:14;101.35;;;44.90;;
40339;SDS011;26044;50.864;20.658;2023-01-16T08:41:09;86.22;;;37.65;;
40339;SDS011;26044;50.864;20.658;2023-01-16T08:47:32;56.47;;;24.50;;
40339;SDS011;26044;50.864;20.658;2023-01-16T08:50:25;44.08;;;20.73;;
40339;SDS011;26044;50.864;20.658;2023-01-16T08:53:37;44.53;;;20.63;;
40339;SDS011;26044;50.864;20.658;2023-01-16T08:56:10;43.75;;;19.45;;
40339;SDS011;26044;50.864;20.658;2023-01-16T08:58:44;40.00;;;17.00;;
40339;SDS011;26044;50.864;20.658;2023-01-16T09:01:10;39.47;;;17.80;;
40339;SDS011;26044;50.864;20.658;2023-01-16T09:03:38;40.15;;;17.95;;
40339;SDS011;26044;50.864;20.658;2023-01-16T09:06:05;40.85;;;18.77;;
40339;SDS011;26044;50.864;20.658;2023-01-16T09:08:31;45.30;;;21.33;;
40339;SDS011;26044;50.864;20.658;2023-01-16T09:10:58;47.30;;;20.70;;
40339;SDS011;26044;50.864;20.658;2023-01-16T09:13:44;40.90;;;19.40;;
40339;SDS011;26044;50.864;20.658;2023-01-16T09:16:17;41.13;;;18.98;;
40339;SDS011;26044;50.864;20.658;2023-01-16T09:18:46;41.97;;;19.33;;
40339;SDS011;26044;50.864;20.658;2023-01-16T09:21:14;55.17;;;25.85;;
40339;SDS011;26044;50.864;20.658;2023-01-16T09:23:41;49.50;;;22.73;;
40339;SDS011;26044;50.864;20.658;2023-01-16T09:26:09;47.95;;;21.58;;
40339;SDS011;26044;50.864;20.658;2023-01-16T09:28:36;44.65;;;21.63;;
40339;SDS011;26044;50.864;20.658;2023-01-16T09:31:03;35.28;;;16.95;;
40339;SDS011;26044;50.864;20.658;2023-01-16T09:33:31;35.63;;;14.85;;
40339;SDS011;26044;50.864;20.658;2023-01-16T09:35:58;34.30;;;15.60;;
40339;SDS011;26044;50.864;20.658;2023-01-16T09:38:25;32.25;;;15.75;;
40339;SDS011;26044;50.864;20.658;2023-01-16T09:40:54;36.05;;;16.15;;
40339;SDS011;26044;50.864;20.658;2023-01-16T09:43:33;35.17;;;15.32;;
40339;SDS011;26044;50.864;20.658;2023-01-16T09:48:57;35.58;;;14.52;;
40339;SDS011;26044;50.864;20.658;2023-01-16T09:51:41;29.73;;;14.57;;
40339;SDS011;26044;50.864;20.658;2023-01-16T09:54:38;31.83;;;13.63;;
40339;SDS011;26044;50.864;20.658;2023-01-16T09:57:27;29.85;;;13.95;;
40339;SDS011;26044;50.864;20.658;2023-01-16T10:00:16;28.88;;;12.95;;
40339;SDS011;26044;50.864;20.658;2023-01-16T10:02:47;30.30;;;13.05;;
40339;SDS011;26044;50.864;20.658;2023-01-16T10:05:14;28.25;;;12.65;;
40339;SDS011;26044;50.864;20.658;2023-01-16T10:16:02;27.48;;;11.38;;
40339;SDS011;26044;50.864;20.658;2023-01-16T10:29:58;31.48;;;15.55;;
40339;SDS011;26044;50.864;20.658;2023-01-16T10:32:34;31.92;;;14.73;;
40339;SDS011;26044;50.864;20.658;2023-01-16T10:35:08;33.70;;;15.48;;
40339;SDS011;26044;50.864;20.658;2023-01-16T10:37:47;32.10;;;16.52;;
40339;SDS011;26044;50.864;20.658;2023-01-16T10:40:18;36.97;;;15.60;;
40339;SDS011;26044;50.864;20.658;2023-01-16T10:43:01;35.70;;;16.25;;
40339;SDS011;26044;50.864;20.658;2023-01-16T10:45:54;38.50;;;15.77;;
40339;SDS011;26044;50.864;20.658;2023-01-16T10:48:44;33.58;;;15.77;;
40339;SDS011;26044;50.864;20.658;2023-01-16T10:51:29;33.63;;;15.65;;
40339;SDS011;26044;50.864;20.658;2023-01-16T10:53:57;38.83;;;17.08;;
40339;SDS011;26044;50.864;20.658;2023-01-16T10:56:25;32.47;;;15.60;;
40339;SDS011;26044;50.864;20.658;2023-01-16T10:58:51;36.63;;;17.73;;
40339;SDS011;26044;50.864;20.658;2023-01-16T11:01:20;35.08;;;17.30;;
40339;SDS011;26044;50.864;20.658;2023-01-16T11:03:50;37.63;;;16.77;;
40339;SDS011;26044;50.864;20.658;2023-01-16T11:06:24;32.28;;;15.45;;
40339;SDS011;26044;50.864;20.658;2023-01-16T11:11:35;29.52;;;13.63;;
40339;SDS011;26044;50.864;20.658;2023-01-16T11:14:32;35.15;;;15.95;;
40339;SDS011;26044;50.864;20.658;2023-01-16T11:17:25;29.80;;;13.63;;
40339;SDS011;26044;50.864;20.658;2023-01-16T11:20:25;26.95;;;12.27;;
40339;SDS011;26044;50.864;20.658;2023-01-16T11:25:47;32.92;;;15.20;;
40339;SDS011;26044;50.864;20.658;2023-01-16T11:28:18;31.77;;;16.25;;
40339;SDS011;26044;50.864;20.658;2023-01-16T11:30:48;33.72;;;15.75;;
40339;SDS011;26044;50.864;20.658;2023-01-16T11:33:20;28.10;;;12.65;;
40339;SDS011;26044;50.864;20.658;2023-01-16T11:36:01;25.92;;;12.32;;
40339;SDS011;26044;50.864;20.658;2023-01-16T11:38:31;27.20;;;12.20;;
40339;SDS011;26044;50.864;20.658;2023-01-16T11:41:04;33.28;;;13.55;;
40339;SDS011;26044;50.864;20.658;2023-01-16T11:43:34;27.95;;;13.07;;
40339;SDS011;26044;50.864;20.658;2023-01-16T11:49:13;25.55;;;13.30;;
40339;SDS011;26044;50.864;20.658;2023-01-16T11:51:45;28.17;;;13.40;;
40339;SDS011;26044;50.864;20.658;2023-01-16T11:54:18;39.90;;;20.30;;
40339;SDS011;26044;50.864;20.658;2023-01-16T11:57:01;31.60;;;15.15;;
40339;SDS011;26044;50.864;20.658;2023-01-16T12:05:51;39.97;;;18.25;;
40339;SDS011;26044;50.864;20.658;2023-01-16T12:08:39;37.78;;;18.90;;
40339;SDS011;26044;50.864;20.658;2023-01-16T12:14:55;38.72;;;16.98;;
40339;SDS011;26044;50.864;20.658;2023-01-16T12:17:31;42.10;;;17.92;;
40339;SDS011;26044;50.864;20.658;2023-01-16T12:39:48;24.27;;;10.88;;
40339;SDS011;26044;50.864;20.658;2023-01-16T12:57:16;21.98;;;9.20;;
40339;SDS011;26044;50.864;20.658;2023-01-16T12:59:27;21.88;;;9.60;;
40339;SDS011;26044;50.864;20.658;2023-01-16T13:02:09;23.70;;;8.68;;
40339;SDS011;26044;50.864;20.658;2023-01-16T13:07:29;25.85;;;10.32;;
40339;SDS011;26044;50.864;20.658;2023-01-16T13:10:03;24.23;;;9.65;;
40339;SDS011;26044;50.864;20.658;2023-01-16T13:13:15;29.52;;;11.82;;
40339;SDS011;26044;50.864;20.658;2023-01-16T13:16:07;25.55;;;11.10;;
40339;SDS011;26044;50.864;20.658;2023-01-16T13:18:42;23.55;;;9.85;;
40339;SDS011;26044;50.864;20.658;2023-01-16T13:26:35;26.05;;;12.40;;
40339;SDS011;26044;50.864;20.658;2023-01-16T13:34:18;27.30;;;12.13;;
40339;SDS011;26044;50.864;20.658;2023-01-16T13:42:07;28.45;;;14.45;;
40339;SDS011;26044;50.864;20.658;2023-01-16T13:44:37;26.08;;;13.05;;
40339;SDS011;26044;50.864;20.658;2023-01-16T13:47:27;28.75;;;13.00;;
40339;SDS011;26044;50.864;20.658;2023-01-16T13:50:05;28.95;;;13.73;;
40339;SDS011;26044;50.864;20.658;2023-01-16T13:52:53;25.15;;;11.73;;
40339;SDS011;26044;50.864;20.658;2023-01-16T13:55:35;27.73;;;13.60;;
40339;SDS011;26044;50.864;20.658;2023-01-16T13:58:08;28.90;;;13.05;;
40339;SDS011;26044;50.864;20.658;2023-01-16T14:00:38;33.53;;;16.05;;
40339;SDS011;26044;50.864;20.658;2023-01-16T14:03:19;39.90;;;18.02;;
40339;SDS011;26044;50.864;20.658;2023-01-16T14:08:46;56.95;;;23.17;;
40339;SDS011;26044;50.864;20.658;2023-01-16T14:11:40;42.50;;;17.67;;
40339;SDS011;26044;50.864;20.658;2023-01-16T14:17:15;34.33;;;15.90;;
40339;SDS011;26044;50.864;20.658;2023-01-16T14:19:51;33.03;;;14.63;;
40339;SDS011;26044;50.864;20.658;2023-01-16T14:22:25;27.63;;;12.90;;
40339;SDS011;26044;50.864;20.658;2023-01-16T14:24:59;24.00;;;12.15;;
40339;SDS011;26044;50.864;20.658;2023-01-16T14:27:34;27.75;;;12.48;;
40339;SDS011;26044;50.864;20.658;2023-01-16T14:30:05;27.25;;;12.80;;
40339;SDS011;26044;50.864;20.658;2023-01-16T14:32:42;28.10;;;14.02;;
40339;SDS011;26044;50.864;20.658;2023-01-16T14:35:22;28.05;;;13.13;;
40339;SDS011;26044;50.864;20.658;2023-01-16T14:40:52;27.40;;;12.75;;
40339;SDS011;26044;50.864;20.658;2023-01-16T14:44:35;29.20;;;13.63;;
40339;SDS011;26044;50.864;20.658;2023-01-16T14:47:05;35.03;;;15.88;;
40339;SDS011;26044;50.864;20.658;2023-01-16T14:50:03;27.23;;;12.82;;
40339;SDS011;26044;50.864;20.658;2023-01-16T14:55:57;30.85;;;14.80;;
40339;SDS011;26044;50.864;20.658;2023-01-16T14:58:54;27.65;;;13.13;;
40339;SDS011;26044;50.864;20.658;2023-01-16T15:01:23;29.30;;;13.23;;
40339;SDS011;26044;50.864;20.658;2023-01-16T15:04:15;26.98;;;12.80;;
40339;SDS011;26044;50.864;20.658;2023-01-16T15:06:48;28.83;;;13.50;;
40339;SDS011;26044;50.864;20.658;2023-01-16T15:09:20;29.65;;;13.52;;
40339;SDS011;26044;50.864;20.658;2023-01-16T15:11:52;28.17;;;12.68;;
40339;SDS011;26044;50.864;20.658;2023-01-16T15:14:23;28.35;;;13.30;;
40339;SDS011;26044;50.864;20.658;2023-01-16T15:19:59;33.17;;;13.85;;
40339;SDS011;26044;50.864;20.658;2023-01-16T15:22:59;36.05;;;16.42;;
40339;SDS011;26044;50.864;20.658;2023-01-16T15:28:13;30.00;;;13.88;;
40339;SDS011;26044;50.864;20.658;2023-01-16T15:31:01;28.88;;;13.18;;
40339;SDS011;26044;50.864;20.658;2023-01-16T15:33:35;35.97;;;17.42;;
40339;SDS011;26044;50.864;20.658;2023-01-16T15:38:55;32.27;;;13.93;;
40339;SDS011;26044;50.864;20.658;2023-01-16T15:41:33;26.83;;;12.32;;
40339;SDS011;26044;50.864;20.658;2023-01-16T15:44:20;24.77;;;11.35;;
40339;SDS011;26044;50.864;20.658;2023-01-16T15:50:08;27.00;;;12.95;;
40339;SDS011;26044;50.864;20.658;2023-01-16T15:52:37;23.98;;;11.77;;
40339;SDS011;26044;50.864;20.658;2023-01-16T15:55:10;23.58;;;10.30;;
40339;SDS011;26044;50.864;20.658;2023-01-16T15:57:55;28.10;;;12.82;;
40339;SDS011;26044;50.864;20.658;2023-01-16T16:00:35;30.52;;;13.10;;
40339;SDS011;26044;50.864;20.658;2023-01-16T16:03:11;38.15;;;16.55;;
40339;SDS011;26044;50.864;20.658;2023-01-16T16:05:47;31.42;;;14.07;;
40339;SDS011;26044;50.864;20.658;2023-01-16T16:08:20;33.00;;;14.38;;
40339;SDS011;26044;50.864;20.658;2023-01-16T16:10:52;36.20;;;16.80;;
40339;SDS011;26044;50.864;20.658;2023-01-16T16:13:39;31.38;;;15.07;;
40339;SDS011;26044;50.864;20.658;2023-01-16T16:16:19;32.45;;;15.43;;
40339;SDS011;26044;50.864;20.658;2023-01-16T16:19:08;29.63;;;13.45;;
40339;SDS011;26044;50.864;20.658;2023-01-16T16:24:27;34.30;;;17.35;;
40339;SDS011;26044;50.864;20.658;2023-01-16T16:26:56;36.05;;;17.88;;
40339;SDS011;26044;50.864;20.658;2023-01-16T16:29:23;40.58;;;19.17;;
40339;SDS011;26044;50.864;20.658;2023-01-16T16:31:50;45.67;;;20.17;;
40339;SDS011;26044;50.864;20.658;2023-01-16T16:34:22;36.95;;;16.15;;
40339;SDS011;26044;50.864;20.658;2023-01-16T16:36:53;62.13;;;25.42;;
40339;SDS011;26044;50.864;20.658;2023-01-16T16:47:42;56.90;;;22.35;;
40339;SDS011;26044;50.864;20.658;2023-01-16T16:50:27;48.35;;;20.67;;
40339;SDS011;26044;50.864;20.658;2023-01-16T16:55:39;36.58;;;16.83;;
40339;SDS011;26044;50.864;20.658;2023-01-16T16:58:17;37.35;;;15.80;;
40339;SDS011;26044;50.864;20.658;2023-01-16T17:00:50;35.53;;;15.98;;
40339;SDS011;26044;50.864;20.658;2023-01-16T17:03:26;33.35;;;14.57;;
40339;SDS011;26044;50.864;20.658;2023-01-16T17:05:54;33.95;;;14.20;;
40339;SDS011;26044;50.864;20.658;2023-01-16T17:08:25;33.35;;;16.02;;
40339;SDS011;26044;50.864;20.658;2023-01-16T17:10:56;31.30;;;15.32;;
40339;SDS011;26044;50.864;20.658;2023-01-16T17:13:24;33.22;;;16.00;;
40339;SDS011;26044;50.864;20.658;2023-01-16T17:15:55;36.63;;;16.15;;
40339;SDS011;26044;50.864;20.658;2023-01-16T17:18:24;31.70;;;14.50;;
40339;SDS011;26044;50.864;20.658;2023-01-16T17:20:53;33.83;;;16.52;;
40339;SDS011;26044;50.864;20.658;2023-01-16T17:23:22;33.47;;;15.80;;
40339;SDS011;26044;50.864;20.658;2023-01-16T17:25:50;28.88;;;12.88;;
40339;SDS011;26044;50.864;20.658;2023-01-16T17:28:17;29.90;;;12.93;;
40339;SDS011;26044;50.864;20.658;2023-01-16T17:30:45;31.83;;;16.45;;
40339;SDS011;26044;50.864;20.658;2023-01-16T17:33:16;33.47;;;15.30;;
40339;SDS011;26044;50.864;20.658;2023-01-16T17:35:46;31.65;;;13.85;;
40339;SDS011;26044;50.864;20.658;2023-01-16T17:38:27;30.63;;;13.00;;
40339;SDS011;26044;50.864;20.658;2023-01-16T17:40:54;32.70;;;14.55;;
40339;SDS011;26044;50.864;20.658;2023-01-16T17:43:21;29.38;;;13.65;;
40339;SDS011;26044;50.864;20.658;2023-01-16T17:46:08;28.10;;;12.10;;
40339;SDS011;26044;50.864;20.658;2023-01-16T17:48:39;27.50;;;12.90;;
40339;SDS011;26044;50.864;20.658;2023-01-16T17:51:07;29.77;;;14.93;;
40339;SDS011;26044;50.864;20.658;2023-01-16T17:53:34;28.90;;;12.40;;
40339;SDS011;26044;50.864;20.658;2023-01-16T17:56:03;25.75;;;11.32;;
40339;SDS011;26044;50.864;20.658;2023-01-16T17:58:33;23.88;;;10.57;;
40339;SDS011;26044;50.864;20.658;2023-01-16T18:01:16;27.48;;;12.85;;
40339;SDS011;26044;50.864;20.658;2023-01-16T18:03:59;27.25;;;11.93;;
40339;SDS011;26044;50.864;20.658;2023-01-16T18:06:36;27.90;;;12.02;;
40339;SDS011;26044;50.864;20.658;2023-01-16T18:09:05;29.25;;;13.63;;
40339;SDS011;26044;50.864;20.658;2023-01-16T18:11:35;27.17;;;12.27;;
40339;SDS011;26044;50.864;20.658;2023-01-16T18:14:22;28.00;;;12.60;;
40339;SDS011;26044;50.864;20.658;2023-01-16T18:17:11;26.10;;;11.48;;
40339;SDS011;26044;50.864;20.658;2023-01-16T18:19:56;32.53;;;14.68;;
40339;SDS011;26044;50.864;20.658;2023-01-16T18:22:27;29.35;;;12.57;;
40339;SDS011;26044;50.864;20.658;2023-01-16T18:24:57;26.77;;;11.30;;
40339;SDS011;26044;50.864;20.658;2023-01-16T18:27:24;38.53;;;16.52;;
40339;SDS011;26044;50.864;20.658;2023-01-16T18:29:51;29.95;;;13.07;;
40339;SDS011;26044;50.864;20.658;2023-01-16T18:32:18;36.97;;;14.50;;
40339;SDS011;26044;50.864;20.658;2023-01-16T18:37:29;36.30;;;17.17;;
40339;SDS011;26044;50.864;20.658;2023-01-16T18:40:05;29.80;;;14.57;;
40339;SDS011;26044;50.864;20.658;2023-01-16T18:42:59;30.80;;;13.40;;
40339;SDS011;26044;50.864;20.658;2023-01-16T18:45:45;26.80;;;11.30;;
40339;SDS011;26044;50.864;20.658;2023-01-16T18:48:31;25.85;;;11.98;;
40339;SDS011;26044;50.864;20.658;2023-01-16T18:51:17;27.52;;;11.68;;
40339;SDS011;26044;50.864;20.658;2023-01-16T18:54:03;28.88;;;12.43;;
40339;SDS011;26044;50.864;20.658;2023-01-16T18:57:08;32.13;;;13.70;;
40339;SDS011;26044;50.864;20.658;2023-01-16T18:59:56;27.33;;;10.63;;
40339;SDS011;26044;50.864;20.658;2023-01-16T19:02:46;25.98;;;10.65;;
40339;SDS011;26044;50.864;20.658;2023-01-16T19:05:15;25.42;;;10.93;;
40339;SDS011;26044;50.864;20.658;2023-01-16T19:07:49;25.50;;;10.43;;
40339;SDS011;26044;50.864;20.658;2023-01-16T19:10:20;27.95;;;11.40;;
40339;SDS011;26044;50.864;20.658;2023-01-16T19:12:50;27.13;;;12.23;;
40339;SDS011;26044;50.864;20.658;2023-01-16T19:15:18;26.80;;;11.80;;
40339;SDS011;26044;50.864;20.658;2023-01-16T19:17:45;26.27;;;12.02;;
40339;SDS011;26044;50.864;20.658;2023-01-16T19:20:13;31.98;;;13.93;;
40339;SDS011;26044;50.864;20.658;2023-01-16T19:22:42;29.42;;;12.70;;
40339;SDS011;26044;50.864;20.658;2023-01-16T19:25:09;25.98;;;12.32;;
40339;SDS011;26044;50.864;20.658;2023-01-16T19:27:36;28.70;;;12.40;;